createdAt,value
2023-03-22T00:03:01.301Z,94601.00
2023-03-22T00:07:01.452Z,94599.00
2023-03-22T00:11:01.362Z,94593.00
2023-03-22T00:15:01.334Z,94593.00
2023-03-22T00:19:01.301Z,94593.00
2023-03-22T00:23:01.205Z,94593.00
2023-03-22T00:27:01.208Z,94593.00
2023-03-22T00:31:01.282Z,94593.00
2023-03-22T00:35:01.195Z,94589.00
2023-03-22T00:39:01.064Z,94589.00
2023-03-22T00:43:01.087Z,94591.00
2023-03-22T00:47:01.221Z,94589.00
2023-03-22T00:51:01.903Z,94579.00
2023-03-22T00:55:01.135Z,94573.00
2023-03-22T00:59:01.026Z,94573.00
2023-03-22T01:03:00.994Z,94575.00
2023-03-22T01:07:00.947Z,94571.00
2023-03-22T01:11:00.920Z,94567.00
2023-03-22T01:15:01.200Z,94562.00
2023-03-22T01:19:01.280Z,94565.00
2023-03-22T01:23:01.506Z,94564.00
2023-03-22T01:27:01.686Z,94562.00
2023-03-22T01:31:02.097Z,94564.00
2023-03-22T01:35:01.934Z,94564.00
2023-03-22T01:39:02.210Z,94562.00
2023-03-22T01:43:01.833Z,94565.00
2023-03-22T01:47:01.808Z,94567.00
2023-03-22T01:51:01.742Z,94567.00
2023-03-22T01:55:01.775Z,94569.00
2023-03-22T01:59:01.679Z,94569.00
2023-03-22T02:03:01.781Z,94564.00
2023-03-22T02:07:01.560Z,94560.00
2023-03-22T02:11:01.687Z,94560.00
2023-03-22T02:15:01.736Z,94560.00
2023-03-22T02:19:01.613Z,94558.00
2023-03-22T02:23:01.728Z,94562.00
2023-03-22T02:27:01.677Z,94567.00
2023-03-22T02:31:01.547Z,94567.00
2023-03-22T02:35:01.420Z,94573.00
2023-03-22T02:39:01.398Z,94575.00
2023-03-22T02:43:01.368Z,94575.00
2023-03-22T02:47:01.327Z,94575.00
2023-03-22T02:51:01.264Z,94571.00
2023-03-22T02:55:01.227Z,94567.00
2023-03-22T02:59:01.448Z,94565.00
2023-03-22T03:03:01.490Z,94564.00
2023-03-22T03:07:01.342Z,94564.00
2023-03-22T03:11:01.320Z,94558.00
2023-03-22T03:15:01.231Z,94556.00
2023-03-22T03:19:01.263Z,94556.00
2023-03-22T03:23:01.181Z,94550.00
2023-03-22T03:27:01.259Z,94548.00
2023-03-22T03:31:01.173Z,94550.00
2023-03-22T03:35:01.097Z,94556.00
2023-03-22T03:39:01.078Z,94556.00
2023-03-22T03:43:01.207Z,94556.00
2023-03-22T03:47:01.219Z,94554.00
2023-03-22T03:51:01.139Z,94552.00
2023-03-22T03:55:01.167Z,94552.00
2023-03-22T03:59:01.164Z,94546.00
2023-03-22T04:03:01.018Z,94540.00
2023-03-22T04:07:01.046Z,94538.00
2023-03-22T04:11:00.949Z,94544.00
2023-03-22T04:15:01.053Z,94544.00
2023-03-22T04:19:01.217Z,94546.00
2023-03-22T04:23:01.685Z,94544.00
2023-03-22T04:27:00.855Z,94546.00
2023-03-22T04:31:00.852Z,94544.00
2023-03-22T04:35:01.702Z,94544.00
2023-03-22T04:39:00.827Z,94544.00
2023-03-22T04:43:00.828Z,94540.00
2023-03-22T04:47:00.697Z,94544.00
2023-03-22T04:51:00.571Z,94542.00
2023-03-22T04:55:00.601Z,94542.00
2023-03-22T04:59:00.759Z,94546.00
2023-03-22T05:03:00.844Z,94552.00
2023-03-22T05:07:01.095Z,94556.00
2023-03-22T05:11:00.956Z,94558.00
2023-03-22T05:15:00.930Z,94560.00
2023-03-22T05:19:00.912Z,94560.00
2023-03-22T05:23:00.915Z,94558.00
2023-03-22T05:27:01.008Z,94564.00
2023-03-22T05:31:00.780Z,94565.00
2023-03-22T05:35:00.788Z,94567.00
2023-03-22T05:39:00.831Z,94565.00
2023-03-22T05:43:00.715Z,94565.00
2023-03-22T05:47:00.780Z,94567.00
2023-03-22T05:51:00.736Z,94571.00
2023-03-22T05:55:01.862Z,94575.00
2023-03-22T05:59:00.700Z,94579.00
2023-03-22T06:03:01.363Z,94579.00
2023-03-22T06:07:00.967Z,94579.00
2023-03-22T06:11:01.060Z,94577.00
2023-03-22T06:15:01.108Z,94581.00
2023-03-22T06:19:01.415Z,94589.00
2023-03-22T06:23:01.303Z,94587.00
2023-03-22T06:27:01.360Z,94589.00
2023-03-22T06:31:01.760Z,94593.00
2023-03-22T06:35:01.589Z,94589.00
2023-03-22T06:39:01.605Z,94583.00
2023-03-22T06:43:05.166Z,94583.00
2023-03-22T06:47:01.677Z,94579.00
2023-03-22T06:51:01.588Z,94577.00
2023-03-22T06:55:01.667Z,94577.00
2023-03-22T06:59:01.822Z,94571.00
2023-03-22T07:03:01.658Z,94573.00
2023-03-22T07:07:01.406Z,94573.00
2023-03-22T07:11:01.771Z,94573.00
2023-03-22T07:15:01.851Z,94573.00
2023-03-22T07:19:01.311Z,94571.00
2023-03-22T07:23:01.333Z,94573.00
2023-03-22T07:27:02.272Z,94575.00
2023-03-22T07:31:02.906Z,94573.00
2023-03-22T07:35:01.567Z,94569.00
2023-03-22T07:39:02.290Z,94565.00
2023-03-22T07:43:01.480Z,94564.00
2023-03-22T07:47:01.546Z,94564.00
2023-03-22T07:51:01.793Z,94562.00
2023-03-22T07:55:01.855Z,94556.00
2023-03-22T07:59:02.220Z,94556.00
2023-03-22T08:03:02.599Z,94556.00
2023-03-22T08:07:02.198Z,94556.00
2023-03-22T08:11:02.753Z,94550.00
2023-03-22T08:15:03.150Z,94548.00
2023-03-22T08:19:04.083Z,94548.00
2023-03-22T08:23:02.123Z,94548.00
2023-03-22T08:31:21.881Z,94544.00
2023-03-22T08:35:21.224Z,94544.00
2023-03-22T08:39:21.226Z,94544.00
2023-03-22T08:43:21.066Z,94538.00
2023-03-22T08:47:21.326Z,94536.00
2023-03-22T08:51:22.020Z,94522.00
2023-03-22T08:55:20.898Z,94509.00
2023-03-22T08:59:20.896Z,94503.00
2023-03-22T09:03:20.904Z,94497.00
2023-03-22T09:07:20.780Z,94489.00
2023-03-22T09:11:21.473Z,94485.00
2023-03-22T09:15:20.858Z,94481.00
2023-03-22T09:19:20.825Z,94481.00
2023-03-22T09:23:20.700Z,94471.00
2023-03-22T09:27:20.731Z,94464.00
2023-03-22T09:31:21.081Z,94460.00
2023-03-22T09:35:20.916Z,94454.00
2023-03-22T09:39:20.898Z,94448.00
2023-03-22T09:43:29.828Z,94442.00
2023-03-22T09:47:20.997Z,94436.00
2023-03-22T09:51:20.914Z,94426.00
2023-03-22T09:55:23.644Z,94424.00
2023-03-22T09:59:21.340Z,94417.00
2023-03-22T10:03:20.893Z,94413.00
2023-03-22T10:07:20.805Z,94415.00
2023-03-22T10:11:20.858Z,94403.00
2023-03-22T10:15:20.708Z,94391.00
2023-03-22T10:19:20.701Z,94379.00
2023-03-22T10:23:20.834Z,94374.00
2023-03-22T10:27:20.623Z,94370.00
2023-03-22T10:31:20.559Z,94366.00
2023-03-22T10:43:59.057Z,94348.00
2023-03-22T10:47:58.720Z,94344.00
2023-03-22T10:51:59.032Z,94338.00
2023-03-22T10:55:59.013Z,94331.00
2023-03-22T10:59:59.734Z,94323.00
2023-03-22T11:03:59.510Z,94317.00
2023-03-22T11:07:58.534Z,94311.00
2023-03-22T11:12:00.086Z,94305.00
2023-03-22T11:15:58.533Z,94299.00
2023-03-22T11:19:58.414Z,94295.00
2023-03-22T11:23:58.448Z,94287.00
2023-03-22T11:27:58.322Z,94282.00
2023-03-22T11:31:58.862Z,94272.00
2023-03-22T11:35:58.766Z,94268.00
2023-03-22T11:40:00.016Z,94266.00
2023-03-22T11:43:58.829Z,94258.00
2023-03-22T11:47:58.986Z,94250.00
2023-03-22T11:51:59.068Z,94244.00
2023-03-22T11:55:59.438Z,94238.00
2023-03-22T11:59:59.050Z,94237.00
2023-03-22T12:03:59.173Z,94233.00
2023-03-22T12:07:59.104Z,94219.00
2023-03-22T12:11:59.076Z,94221.00
2023-03-22T12:15:59.057Z,94211.00
2023-03-22T12:19:59.543Z,94199.00
2023-03-22T12:23:59.026Z,94191.00
2023-03-22T12:27:58.993Z,94186.00
2023-03-22T12:31:59.122Z,94184.00
2023-03-22T12:36:00.517Z,94172.00
2023-03-22T12:39:59.083Z,94164.00
2023-03-22T12:43:59.117Z,94154.00
2023-03-22T12:47:59.299Z,94144.00
2023-03-22T12:51:59.280Z,94137.00
2023-03-22T12:55:59.183Z,94131.00
2023-03-22T12:59:59.220Z,94123.00
2023-03-22T13:03:59.457Z,94119.00
2023-03-22T13:07:59.275Z,94117.00
2023-03-22T13:11:59.534Z,94113.00
2023-03-22T13:15:59.337Z,94109.00
2023-03-22T13:19:59.298Z,94106.00
2023-03-22T13:23:59.348Z,94099.00
2023-03-22T13:28:00.472Z,94096.00
2023-03-22T13:31:59.580Z,94086.00
2023-03-22T13:35:59.586Z,94084.00
2023-03-22T13:39:59.661Z,94074.00
2023-03-22T13:43:59.848Z,94066.00
2023-03-22T13:48:00.166Z,94056.00
2023-03-22T13:52:00.183Z,94051.00
2023-03-22T13:56:00.469Z,94043.00
2023-03-22T14:00:10.254Z,94045.00
2023-03-22T14:04:01.345Z,94041.00
2023-03-22T14:08:00.311Z,94035.00
2023-03-22T14:12:00.462Z,94031.00
2023-03-22T14:16:00.730Z,94029.00
2023-03-22T14:20:00.836Z,94021.00
2023-03-22T14:49:01.842Z,93998.00
2023-03-22T14:53:01.667Z,93996.00
2023-03-22T14:57:01.543Z,93994.00
2023-03-22T15:01:01.553Z,93992.00
2023-03-22T15:09:01.389Z,93984.00
2023-03-22T15:13:01.890Z,93978.00
2023-03-22T15:17:01.538Z,93974.00
2023-03-22T15:21:01.586Z,93974.00
2023-03-22T15:25:01.492Z,93976.00
2023-03-22T15:29:01.553Z,93976.00
2023-03-22T15:33:01.467Z,93976.00
2023-03-22T15:37:01.403Z,93978.00
2023-03-22T15:41:01.582Z,93972.00
2023-03-22T15:45:01.339Z,93972.00
2023-03-22T15:49:01.309Z,93972.00
2023-03-22T15:53:01.188Z,93980.00
2023-03-22T15:57:01.235Z,93978.00
2023-03-22T16:01:01.876Z,93982.00
2023-03-22T16:05:01.144Z,93988.00
2023-03-22T16:09:01.360Z,93990.00
2023-03-22T16:13:01.043Z,93992.00
2023-03-22T16:17:01.049Z,93996.00
2023-03-22T16:21:00.932Z,94000.00
2023-03-22T16:25:00.907Z,94005.00
2023-03-22T16:29:00.876Z,94009.00
2023-03-22T16:33:00.802Z,94011.00
2023-03-22T16:37:00.824Z,94017.00
2023-03-22T16:41:00.790Z,94021.00
2023-03-22T16:45:00.762Z,94023.00
2023-03-22T16:49:00.739Z,94031.00
2023-03-22T16:53:00.749Z,94037.00
2023-03-22T16:57:00.684Z,94037.00
2023-03-22T17:01:00.651Z,94045.00
2023-03-22T17:05:00.712Z,94051.00
2023-03-22T17:09:00.657Z,94058.00
2023-03-22T17:13:00.620Z,94064.00
2023-03-22T17:17:00.649Z,94066.00
2023-03-22T17:21:00.685Z,94068.00
2023-03-22T17:25:00.839Z,94076.00
2023-03-22T17:29:00.669Z,94082.00
2023-03-22T17:33:01.845Z,94086.00
2023-03-22T17:37:00.658Z,94092.00
2023-03-22T17:41:02.179Z,94096.00
2023-03-22T17:45:00.713Z,94106.00
2023-03-22T17:49:00.744Z,94111.00
2023-03-22T17:53:00.756Z,94117.00
2023-03-22T18:01:00.825Z,94137.00
2023-03-22T18:05:00.920Z,94148.00
2023-03-22T18:09:00.675Z,94156.00
2023-03-22T18:13:00.612Z,94164.00
2023-03-22T18:17:00.675Z,94168.00
2023-03-22T18:21:00.815Z,94174.00
2023-03-22T18:25:00.953Z,94182.00
2023-03-22T18:29:01.378Z,94191.00
2023-03-22T18:33:05.893Z,94199.00
2023-03-22T18:37:01.522Z,94203.00
2023-03-22T18:45:01.690Z,94211.00
2023-03-22T18:49:00.319Z,94219.00
2023-03-22T18:53:17.905Z,94225.00
2023-03-22T18:57:01.226Z,94229.00
2023-03-22T19:01:00.236Z,94237.00
2023-03-22T19:05:00.451Z,94231.00
2023-03-22T19:09:00.180Z,94233.00
2023-03-22T19:13:00.571Z,94237.00
2023-03-22T19:17:00.360Z,94240.00
2023-03-22T19:21:11.208Z,94246.00
2023-03-22T19:25:01.354Z,94244.00
2023-03-22T19:29:00.492Z,94244.00
2023-03-22T19:33:23.929Z,94248.00
2023-03-22T19:37:01.252Z,94250.00
2023-03-22T19:41:38.706Z,94252.00
2023-03-22T19:45:03.073Z,94250.00
2023-03-22T19:49:00.144Z,94252.00
2023-03-22T19:53:14.378Z,94248.00
2023-03-22T19:57:01.095Z,94250.00
2023-03-22T20:01:00.090Z,94246.00
2023-03-22T20:05:02.888Z,94252.00
2023-03-22T20:09:01.023Z,94256.00
2023-03-22T20:13:00.139Z,94256.00
2023-03-22T20:17:06.844Z,94252.00
2023-03-22T20:21:00.981Z,94260.00
2023-03-22T20:24:59.943Z,94270.00
2023-03-22T20:29:00.014Z,94272.00
2023-03-22T20:33:00.246Z,94280.00
2023-03-22T20:37:00.317Z,94285.00
2023-03-22T20:41:00.494Z,94285.00
2023-03-22T20:45:00.672Z,94290.00
2023-03-22T20:49:00.790Z,94293.00
2023-03-22T20:53:01.053Z,94293.00
2023-03-22T20:57:01.103Z,94297.00
2023-03-22T21:01:01.276Z,94301.00
2023-03-22T21:05:01.456Z,94301.00
2023-03-22T21:09:01.628Z,94303.00
2023-03-22T21:13:01.729Z,94311.00
2023-03-22T21:17:02.933Z,94315.00
2023-03-22T21:21:01.999Z,94315.00
2023-03-22T21:25:02.075Z,94319.00
2023-03-22T21:29:03.033Z,94325.00
2023-03-22T21:33:03.454Z,94329.00
2023-03-22T21:37:02.668Z,94329.00
2023-03-22T21:41:02.954Z,94329.00
2023-03-22T21:45:02.980Z,94329.00
2023-03-22T21:49:03.166Z,94332.00
2023-03-22T21:53:03.312Z,94334.00
2023-03-22T21:57:03.492Z,94336.00
2023-03-22T22:01:03.835Z,94332.00
2023-03-22T22:05:03.976Z,94334.00
2023-03-22T22:09:05.052Z,94340.00
2023-03-22T22:13:04.323Z,94344.00
2023-03-22T22:17:04.577Z,94348.00
2023-03-22T22:21:04.714Z,94354.00
2023-03-22T22:25:04.898Z,94352.00
2023-03-22T22:29:05.075Z,94356.00
2023-03-22T22:33:05.294Z,94354.00
2023-03-22T22:37:05.634Z,94354.00
2023-03-22T22:41:06.048Z,94352.00
2023-03-22T22:45:05.937Z,94350.00
2023-03-22T22:49:09.026Z,94344.00
2023-03-22T22:53:06.164Z,94342.00
2023-03-22T22:57:06.037Z,94342.00
2023-03-22T23:01:06.109Z,94342.00
2023-03-22T23:05:05.987Z,94340.00
2023-03-22T23:09:05.971Z,94344.00
2023-03-22T23:13:05.913Z,94338.00
2023-03-22T23:17:06.007Z,94334.00
2023-03-22T23:21:05.818Z,94332.00
2023-03-22T23:25:05.805Z,94332.00
2023-03-22T23:29:05.742Z,94338.00
2023-03-22T23:33:05.964Z,94340.00
2023-03-22T23:37:05.964Z,94336.00
2023-03-22T23:41:05.935Z,94338.00
2023-03-22T23:45:05.866Z,94344.00
2023-03-22T23:49:05.842Z,94344.00
2023-03-22T23:53:05.811Z,94344.00
2023-03-22T23:57:05.765Z,94348.00
